Time;durP1;ratioP1;P1;durP2;ratioP2;P2;SDS_P1;SDS_P2;PMS_P1;PMS_P2;Temp;Humidity;BMP_temperature;BMP_pressure;BME280_temperature;BME280_humidity;BME280_pressure;Samples;Min_cycle;Max_cycle;Signal;HPM_P1;HPM_P2
2022/03/29 00:01:49;;;;;;;4.40;2.80;;;;;;;;;;5049502;28;20320;-47
2022/03/29 00:04:16;;;;;;;5.43;2.63;;;;;;;;;;5050387;28;20033;-51
2022/03/29 00:06:42;;;;;;;3.92;3.03;;;;;;;;;;5049919;28;20027;-49
2022/03/29 00:09:08;;;;;;;4.97;3.20;;;;;;;;;;5050102;28;20032;-48
2022/03/29 00:11:34;;;;;;;3.92;3.05;;;;;;;;;;5049818;28;20401;-48
2022/03/29 00:14:02;;;;;;;4.00;2.97;;;;;;;;;;5050584;28;20017;-52
2022/03/29 00:16:28;;;;;;;3.67;2.80;;;;;;;;;;5050290;28;20013;-51
2022/03/29 00:18:54;;;;;;;6.75;3.35;;;;;;;;;;5049718;28;20025;-48
2022/03/29 00:21:20;;;;;;;4.78;3.08;;;;;;;;;;5050611;28;20024;-46
2022/03/29 00:23:47;;;;;;;3.25;2.50;;;;;;;;;;5049751;28;20029;-51
2022/03/29 00:26:14;;;;;;;3.78;3.03;;;;;;;;;;5050243;28;20470;-48
2022/03/29 00:28:40;;;;;;;4.90;3.30;;;;;;;;;;5049056;28;20047;-46
2022/03/29 00:31:06;;;;;;;5.95;3.30;;;;;;;;;;5050363;28;20144;-50
2022/03/29 00:33:32;;;;;;;5.15;2.80;;;;;;;;;;5049404;28;20059;-48
2022/03/29 00:35:58;;;;;;;3.63;2.85;;;;;;;;;;5050278;28;20053;-50
2022/03/29 00:38:24;;;;;;;4.65;3.20;;;;;;;;;;5050764;28;20088;-47
2022/03/29 00:40:50;;;;;;;4.88;3.08;;;;;;;;;;5050535;28;20048;-50
2022/03/29 00:43:16;;;;;;;4.40;3.30;;;;;;;;;;5051479;28;20036;-47
2022/03/29 00:45:43;;;;;;;4.57;2.85;;;;;;;;;;5050385;28;20023;-45
2022/03/29 00:48:09;;;;;;;3.78;2.65;;;;;;;;;;5051390;28;20032;-46
2022/03/29 00:50:39;;;;;;;4.78;3.03;;;;;;;;;;5050374;28;20025;-46
2022/03/29 00:53:05;;;;;;;4.15;3.15;;;;;;;;;;5051606;28;20025;-45
2022/03/29 00:55:32;;;;;;;4.07;2.85;;;;;;;;;;5050621;28;20017;-49
2022/03/29 00:57:58;;;;;;;3.65;2.95;;;;;;;;;;5051367;28;20025;-47
2022/03/29 01:00:25;;;;;;;3.63;2.63;;;;;;;;;;5051772;28;20440;-45
2022/03/29 01:02:50;;;;;;;3.38;2.60;;;;;;;;;;5051032;28;20385;-45
2022/03/29 01:05:17;;;;;;;4.95;2.78;;;;;;;;;;5051467;28;20031;-45
2022/03/29 01:07:43;;;;;;;4.60;3.10;;;;;;;;;;5050584;28;20433;-45
2022/03/29 01:10:09;;;;;;;3.75;3.00;;;;;;;;;;5051041;28;20551;-45
2022/03/29 01:12:37;;;;;;;4.20;3.15;;;;;;;;;;5050947;28;20055;-45
2022/03/29 01:15:05;;;;;;;4.90;3.17;;;;;;;;;;5051325;28;20112;-45
2022/03/29 01:17:40;;;;;;;3.58;2.75;;;;;;;;;;5050812;28;20088;-49
2022/03/29 01:20:08;;;;;;;3.53;2.72;;;;;;;;;;5052363;28;20021;-45
2022/03/29 01:22:34;;;;;;;6.30;3.15;;;;;;;;;;5053673;28;20502;-45
2022/03/29 01:25:00;;;;;;;4.43;3.00;;;;;;;;;;5055123;28;20037;-45
2022/03/29 01:27:26;;;;;;;3.60;2.60;;;;;;;;;;5054860;28;20044;-48
2022/03/29 01:29:59;;;;;;;4.05;2.50;;;;;;;;;;5053972;28;20044;-45
2022/03/29 01:32:29;;;;;;;6.47;2.75;;;;;;;;;;5054832;28;20471;-45
2022/03/29 01:34:56;;;;;;;5.32;3.20;;;;;;;;;;5054485;28;20036;-45
2022/03/29 01:37:22;;;;;;;3.88;2.88;;;;;;;;;;5054806;28;20025;-45
2022/03/29 01:39:48;;;;;;;4.25;2.75;;;;;;;;;;5054091;28;20053;-45
2022/03/29 01:42:14;;;;;;;4.43;3.22;;;;;;;;;;5054993;28;20421;-45
2022/03/29 01:44:40;;;;;;;5.25;2.92;;;;;;;;;;5053743;28;20025;-45
2022/03/29 01:47:06;;;;;;;3.53;3.05;;;;;;;;;;5054631;28;20148;-45
2022/03/29 01:49:32;;;;;;;3.63;2.90;;;;;;;;;;5054202;28;20013;-48
2022/03/29 01:51:58;;;;;;;4.90;3.30;;;;;;;;;;5054181;28;20029;-45
2022/03/29 01:54:25;;;;;;;4.43;2.83;;;;;;;;;;5054381;28;20059;-48
2022/03/29 01:56:51;;;;;;;6.18;3.58;;;;;;;;;;5053434;28;20013;-46
2022/03/29 01:59:17;;;;;;;4.45;3.13;;;;;;;;;;5054629;28;20021;-46
2022/03/29 02:01:44;;;;;;;4.72;3.17;;;;;;;;;;5053394;28;20382;-48
2022/03/29 02:04:10;;;;;;;5.30;3.05;;;;;;;;;;5054257;28;20383;-49
2022/03/29 02:06:36;;;;;;;3.53;2.90;;;;;;;;;;5052691;28;20417;-50
2022/03/29 02:09:03;;;;;;;4.90;3.08;;;;;;;;;;5053918;28;20137;-47
2022/03/29 02:11:29;;;;;;;3.95;2.90;;;;;;;;;;5054126;28;20041;-49
2022/03/29 02:13:55;;;;;;;5.07;2.97;;;;;;;;;;5053240;28;20035;-45
2022/03/29 02:16:21;;;;;;;4.45;3.10;;;;;;;;;;5054139;28;20028;-48
2022/03/29 02:18:47;;;;;;;5.82;3.85;;;;;;;;;;5053083;28;20104;-47
2022/03/29 02:21:17;;;;;;;5.53;3.10;;;;;;;;;;5053382;28;20433;-46
2022/03/29 02:23:43;;;;;;;4.45;3.30;;;;;;;;;;5052690;28;20036;-46
2022/03/29 02:26:09;;;;;;;4.03;2.92;;;;;;;;;;5054115;28;20115;-49
2022/03/29 02:28:35;;;;;;;5.47;3.47;;;;;;;;;;5053050;28;20144;-46
2022/03/29 02:31:01;;;;;;;4.80;2.53;;;;;;;;;;5052257;28;20378;-48
2022/03/29 02:33:27;;;;;;;4.38;3.03;;;;;;;;;;5053714;28;20040;-46
2022/03/29 02:35:54;;;;;;;5.53;3.20;;;;;;;;;;5053080;28;20096;-48
2022/03/29 02:38:20;;;;;;;3.40;2.80;;;;;;;;;;5053147;28;20056;-45
2022/03/29 02:40:46;;;;;;;4.20;2.97;;;;;;;;;;5052667;28;20036;-46
2022/03/29 02:43:13;;;;;;;6.20;3.42;;;;;;;;;;5053429;28;20377;-45
2022/03/29 02:45:39;;;;;;;5.07;3.63;;;;;;;;;;5052861;28;20096;-45
2022/03/29 02:48:05;;;;;;;4.55;2.90;;;;;;;;;;5053906;28;20421;-46
2022/03/29 02:50:31;;;;;;;3.25;2.58;;;;;;;;;;5052859;28;20021;-50
2022/03/29 02:52:59;;;;;;;4.80;2.67;;;;;;;;;;5052283;28;20509;-49
2022/03/29 02:55:26;;;;;;;4.80;3.17;;;;;;;;;;5053454;28;20025;-45
2022/03/29 02:57:53;;;;;;;5.18;3.13;;;;;;;;;;5052291;28;20653;-46
2022/03/29 03:00:20;;;;;;;4.72;3.30;;;;;;;;;;5053333;28;20450;-45
2022/03/29 03:02:50;;;;;;;3.38;2.75;;;;;;;;;;5052015;28;20037;-45
2022/03/29 03:05:16;;;;;;;4.85;3.00;;;;;;;;;;5052666;28;20421;-45
2022/03/29 03:07:45;;;;;;;3.58;2.60;;;;;;;;;;5052077;28;20029;-48
2022/03/29 03:10:11;;;;;;;3.83;3.00;;;;;;;;;;5052715;28;20538;-46
2022/03/29 03:12:39;;;;;;;4.10;3.00;;;;;;;;;;5052280;28;20549;-45
2022/03/29 03:15:05;;;;;;;4.30;2.90;;;;;;;;;;5053269;28;20021;-46
2022/03/29 03:17:32;;;;;;;5.28;3.17;;;;;;;;;;5052636;28;20036;-45
2022/03/29 03:19:58;;;;;;;2.97;2.40;;;;;;;;;;5052345;28;20029;-45
2022/03/29 03:22:24;;;;;;;4.22;2.63;;;;;;;;;;5052162;28;20382;-47
2022/03/29 03:24:50;;;;;;;4.82;3.30;;;;;;;;;;5051843;28;20018;-45
2022/03/29 03:27:17;;;;;;;5.60;2.92;;;;;;;;;;5052586;28;20025;-45
2022/03/29 03:29:44;;;;;;;4.47;3.00;;;;;;;;;;5051394;28;20397;-49
2022/03/29 03:32:10;;;;;;;3.50;2.75;;;;;;;;;;5052238;28;20485;-46
2022/03/29 03:34:36;;;;;;;4.05;2.78;;;;;;;;;;5051893;28;20029;-50
2022/03/29 03:37:05;;;;;;;5.47;3.22;;;;;;;;;;5052377;28;20086;-49
2022/03/29 03:39:35;;;;;;;4.32;2.65;;;;;;;;;;5052098;28;20146;-45
2022/03/29 03:42:04;;;;;;;4.93;3.33;;;;;;;;;;5051510;28;20482;-45
2022/03/29 03:44:30;;;;;;;4.22;2.70;;;;;;;;;;5052078;28;20043;-46
2022/03/29 03:46:57;;;;;;;3.83;3.13;;;;;;;;;;5051978;28;20401;-48
2022/03/29 03:49:23;;;;;;;4.88;3.30;;;;;;;;;;5052278;28;20021;-47
2022/03/29 03:51:49;;;;;;;6.55;3.25;;;;;;;;;;5050148;28;20054;-48
2022/03/29 03:54:15;;;;;;;3.58;2.83;;;;;;;;;;5051947;28;20021;-50
2022/03/29 03:56:41;;;;;;;3.75;2.55;;;;;;;;;;5051038;28;20474;-46
2022/03/29 03:59:07;;;;;;;3.55;2.80;;;;;;;;;;5052156;28;20079;-46
2022/03/29 04:01:34;;;;;;;4.28;2.75;;;;;;;;;;5052026;28;20087;-47
2022/03/29 04:04:00;;;;;;;4.53;2.58;;;;;;;;;;5051490;28;20068;-49
2022/03/29 04:06:26;;;;;;;3.95;2.70;;;;;;;;;;5052239;28;20044;-48
2022/03/29 04:08:52;;;;;;;4.43;2.90;;;;;;;;;;5051291;28;20032;-45
2022/03/29 04:11:19;;;;;;;3.97;2.95;;;;;;;;;;5051804;28;20025;-45
2022/03/29 04:13:45;;;;;;;4.03;2.90;;;;;;;;;;5051185;28;20082;-50
2022/03/29 04:16:11;;;;;;;4.68;3.00;;;;;;;;;;5051914;28;20029;-46
2022/03/29 04:18:37;;;;;;;4.07;3.22;;;;;;;;;;5051476;28;20025;-50
2022/03/29 04:21:05;;;;;;;7.65;3.08;;;;;;;;;;5051580;28;20033;-49
2022/03/29 04:23:31;;;;;;;3.90;2.80;;;;;;;;;;5051542;28;20025;-47
2022/03/29 04:25:57;;;;;;;4.45;3.17;;;;;;;;;;5051097;28;20096;-49
2022/03/29 04:28:24;;;;;;;5.15;3.30;;;;;;;;;;5051867;28;20021;-45
2022/03/29 04:30:50;;;;;;;4.93;2.85;;;;;;;;;;5050746;28;20033;-47
2022/03/29 04:33:17;;;;;;;4.38;3.28;;;;;;;;;;5051780;28;20032;-45
2022/03/29 04:35:43;;;;;;;8.10;2.78;;;;;;;;;;5051001;28;20418;-48
2022/03/29 04:38:09;;;;;;;4.22;2.85;;;;;;;;;;5051276;28;20080;-46
2022/03/29 04:40:35;;;;;;;6.10;2.92;;;;;;;;;;5051242;28;20057;-52
2022/03/29 04:43:01;;;;;;;5.15;3.42;;;;;;;;;;5051348;28;20099;-48
2022/03/29 04:45:27;;;;;;;6.38;3.40;;;;;;;;;;5051224;28;20072;-45
2022/03/29 04:47:53;;;;;;;3.85;2.90;;;;;;;;;;5051302;28;20466;-45
2022/03/29 04:50:19;;;;;;;4.97;3.13;;;;;;;;;;5051525;28;20025;-45
2022/03/29 04:52:46;;;;;;;4.47;2.72;;;;;;;;;;5050563;28;20500;-46
2022/03/29 04:55:13;;;;;;;4.22;2.95;;;;;;;;;;5053190;28;20404;-45
2022/03/29 04:57:41;;;;;;;4.32;2.90;;;;;;;;;;5055143;28;20025;-48
2022/03/29 05:00:07;;;;;;;4.05;2.70;;;;;;;;;;5055466;28;20029;-47
2022/03/29 05:02:35;;;;;;;5.25;3.42;;;;;;;;;;5055133;28;20394;-49
2022/03/29 05:05:01;;;;;;;5.45;3.63;;;;;;;;;;5054543;28;20017;-47
2022/03/29 05:07:28;;;;;;;5.25;3.10;;;;;;;;;;5054948;28;20082;-46
2022/03/29 05:09:55;;;;;;;5.85;3.67;;;;;;;;;;5054305;28;20029;-48
2022/03/29 05:12:21;;;;;;;5.72;2.90;;;;;;;;;;5055106;28;20359;-51
2022/03/29 05:14:47;;;;;;;5.45;3.10;;;;;;;;;;5054509;28;20032;-45
2022/03/29 05:17:13;;;;;;;5.18;3.17;;;;;;;;;;5054767;28;20025;-48
2022/03/29 05:19:39;;;;;;;5.10;3.33;;;;;;;;;;5053915;28;20033;-48
2022/03/29 05:22:06;;;;;;;4.30;2.90;;;;;;;;;;5054274;28;20482;-46
2022/03/29 05:24:32;;;;;;;4.80;2.90;;;;;;;;;;5055139;28;20043;-48
2022/03/29 05:26:58;;;;;;;4.35;3.33;;;;;;;;;;5054011;28;20051;-48
2022/03/29 05:29:25;;;;;;;4.25;3.25;;;;;;;;;;5054856;28;20020;-46
2022/03/29 05:31:51;;;;;;;5.78;3.08;;;;;;;;;;5054099;28;20131;-45
2022/03/29 05:34:17;;;;;;;6.95;3.45;;;;;;;;;;5054569;28;20106;-44
2022/03/29 05:36:46;;;;;;;5.00;2.72;;;;;;;;;;5054388;28;20377;-43
2022/03/29 05:39:16;;;;;;;3.40;2.42;;;;;;;;;;5052948;28;20401;-44
2022/03/29 05:41:43;;;;;;;8.15;3.42;;;;;;;;;;5053855;28;20036;-43
2022/03/29 05:44:09;;;;;;;8.65;3.60;;;;;;;;;;5054573;28;20052;-47
2022/03/29 05:49:20;;;;;;;6.80;2.80;;;;;;;;;;5054120;28;20032;-47
2022/03/29 05:51:47;;;;;;;9.75;2.95;;;;;;;;;;5053472;28;20056;-43
2022/03/29 05:54:13;;;;;;;4.57;3.00;;;;;;;;;;5054609;28;20035;-44
2022/03/29 05:56:39;;;;;;;4.63;3.05;;;;;;;;;;5054355;28;20068;-49
2022/03/29 05:59:08;;;;;;;5.50;3.10;;;;;;;;;;5053667;28;20025;-44
2022/03/29 06:01:34;;;;;;;7.75;2.85;;;;;;;;;;5053826;28;20052;-44
2022/03/29 06:04:01;;;;;;;7.68;3.25;;;;;;;;;;5053597;28;20454;-44
2022/03/29 06:06:27;;;;;;;7.15;3.35;;;;;;;;;;5053902;28;20029;-43
2022/03/29 06:08:53;;;;;;;5.45;3.63;;;;;;;;;;5047660;28;20043;-44
2022/03/29 06:11:21;;;;;;;9.68;3.63;;;;;;;;;;5054618;28;20036;-44
2022/03/29 06:13:47;;;;;;;6.55;3.22;;;;;;;;;;5055977;28;20025;-44
2022/03/29 06:16:13;;;;;;;6.82;2.80;;;;;;;;;;5051984;28;20032;-48
2022/03/29 06:18:39;;;;;;;8.73;3.40;;;;;;;;;;5052561;28;20033;-48
2022/03/29 06:21:06;;;;;;;7.20;3.42;;;;;;;;;;5052888;28;20025;-43
2022/03/29 06:23:32;;;;;;;5.65;3.00;;;;;;;;;;5052926;28;20061;-43
2022/03/29 06:25:57;;;;;;;5.53;3.47;;;;;;;;;;5052264;28;20493;-43
2022/03/29 06:28:23;;;;;;;7.35;3.47;;;;;;;;;;5053171;28;20056;-43
2022/03/29 06:30:50;;;;;;;11.93;3.65;;;;;;;;;;5051395;28;20379;-43
2022/03/29 06:33:16;;;;;;;9.23;4.05;;;;;;;;;;5054016;28;20525;-43
2022/03/29 06:35:42;;;;;;;8.40;5.35;;;;;;;;;;5052589;28;20309;-48
2022/03/29 06:38:08;;;;;;;11.77;7.10;;;;;;;;;;5050451;28;20498;-42
2022/03/29 06:40:35;;;;;;;13.35;5.78;;;;;;;;;;5052616;28;20036;-43
2022/03/29 06:43:01;;;;;;;9.13;5.85;;;;;;;;;;5048036;28;20677;-43
2022/03/29 06:45:28;;;;;;;9.00;5.25;;;;;;;;;;5051586;28;20017;-44
2022/03/29 06:47:54;;;;;;;10.75;6.43;;;;;;;;;;5052967;28;20029;-44
2022/03/29 06:50:21;;;;;;;14.88;6.97;;;;;;;;;;5050317;28;20371;-42
2022/03/29 06:52:47;;;;;;;10.02;6.80;;;;;;;;;;5051626;28;20039;-43
2022/03/29 06:55:15;;;;;;;9.93;5.57;;;;;;;;;;5041171;28;20039;-43
2022/03/29 06:57:41;;;;;;;11.40;6.07;;;;;;;;;;5040548;28;20427;-47
2022/03/29 07:00:09;;;;;;;15.60;7.13;;;;;;;;;;5036608;28;20049;-43
2022/03/29 07:02:35;;;;;;;15.00;6.85;;;;;;;;;;5050491;28;20037;-43
2022/03/29 07:05:02;;;;;;;14.02;7.00;;;;;;;;;;5052055;28;20665;-45
2022/03/29 07:07:28;;;;;;;12.63;7.78;;;;;;;;;;5052782;28;20032;-43
2022/03/29 07:12:52;;;;;;;15.27;8.50;;;;;;;;;;5043317;28;20131;-42
2022/03/29 07:15:18;;;;;;;15.00;7.35;;;;;;;;;;5052008;28;20106;-43
2022/03/29 07:17:45;;;;;;;13.00;7.50;;;;;;;;;;5051265;28;20100;-46
2022/03/29 07:20:11;;;;;;;15.27;7.55;;;;;;;;;;5052361;28;20040;-44
2022/03/29 07:22:37;;;;;;;21.15;8.35;;;;;;;;;;5052435;28;20107;-44
2022/03/29 07:25:04;;;;;;;14.32;8.82;;;;;;;;;;5051502;28;20147;-42
2022/03/29 07:27:30;;;;;;;15.02;8.15;;;;;;;;;;5050794;28;20024;-48
2022/03/29 07:29:57;;;;;;;12.85;8.13;;;;;;;;;;5051055;28;20032;-44
2022/03/29 07:32:23;;;;;;;13.80;7.45;;;;;;;;;;5052036;28;20028;-47
2022/03/29 07:34:49;;;;;;;16.85;8.20;;;;;;;;;;5050784;28;20033;-44
2022/03/29 07:37:15;;;;;;;14.90;8.02;;;;;;;;;;5052029;28;20029;-42
2022/03/29 07:39:41;;;;;;;17.50;8.25;;;;;;;;;;5052403;28;20053;-44
2022/03/29 07:42:08;;;;;;;16.75;8.85;;;;;;;;;;5051085;28;20509;-42
2022/03/29 07:44:34;;;;;;;15.60;8.68;;;;;;;;;;5050021;28;20041;-46
2022/03/29 07:47:00;;;;;;;14.68;8.00;;;;;;;;;;5051167;28;20021;-44
2022/03/29 07:49:29;;;;;;;18.05;8.27;;;;;;;;;;5052073;28;20379;-44
2022/03/29 07:51:55;;;;;;;12.20;7.78;;;;;;;;;;5050652;28;20478;-48
2022/03/29 07:54:21;;;;;;;15.68;7.78;;;;;;;;;;5050864;28;20497;-43
2022/03/29 07:56:47;;;;;;;14.68;8.07;;;;;;;;;;5049805;28;20025;-49
2022/03/29 07:59:13;;;;;;;16.83;8.23;;;;;;;;;;5051147;28;20067;-46
2022/03/29 08:01:40;;;;;;;14.20;8.20;;;;;;;;;;5051544;28;20071;-44
2022/03/29 08:04:07;;;;;;;19.15;9.57;;;;;;;;;;5050561;28;20649;-43
2022/03/29 08:06:33;;;;;;;17.65;8.38;;;;;;;;;;5051348;28;20471;-44
2022/03/29 08:08:59;;;;;;;23.65;8.05;;;;;;;;;;5050271;28;20033;-43
2022/03/29 08:11:25;;;;;;;15.90;8.18;;;;;;;;;;5050714;28;20463;-45
2022/03/29 08:13:51;;;;;;;21.25;8.95;;;;;;;;;;5050342;28;20025;-44
2022/03/29 08:16:17;;;;;;;16.85;8.43;;;;;;;;;;5050952;28;20489;-45
2022/03/29 08:18:43;;;;;;;26.33;9.02;;;;;;;;;;5051071;28;20474;-46
2022/03/29 08:23:54;;;;;;;15.88;7.93;;;;;;;;;;5050792;28;20406;-43
2022/03/29 08:26:20;;;;;;;16.15;7.90;;;;;;;;;;5051767;28;20524;-44
2022/03/29 08:28:46;;;;;;;11.30;7.68;;;;;;;;;;5050090;28;20040;-49
2022/03/29 08:31:13;;;;;;;13.80;8.00;;;;;;;;;;5050793;28;20017;-43
2022/03/29 08:33:39;;;;;;;15.48;7.72;;;;;;;;;;5051401;28;20057;-43
2022/03/29 08:36:05;;;;;;;17.45;8.65;;;;;;;;;;5049103;28;20664;-47
2022/03/29 08:38:31;;;;;;;14.90;7.10;;;;;;;;;;5050035;28;20133;-42
2022/03/29 08:40:59;;;;;;;11.52;7.40;;;;;;;;;;5050450;28;20049;-43
2022/03/29 08:43:29;;;;;;;13.00;6.70;;;;;;;;;;5050960;28;20068;-43
2022/03/29 08:45:55;;;;;;;14.57;7.65;;;;;;;;;;5050685;28;20063;-44
2022/03/29 08:48:30;;;;;;;13.18;7.97;;;;;;;;;;5050860;28;20468;-44
2022/03/29 08:50:57;;;;;;;14.88;8.63;;;;;;;;;;5050582;28;20028;-43
2022/03/29 08:53:24;;;;;;;15.20;7.90;;;;;;;;;;5050664;28;20167;-46
2022/03/29 08:55:50;;;;;;;19.58;8.55;;;;;;;;;;5030683;28;20032;-43
2022/03/29 08:58:17;;;;;;;16.70;9.18;;;;;;;;;;5048366;28;20104;-43
2022/03/29 09:00:48;;;;;;;16.27;8.18;;;;;;;;;;5050218;28;20051;-43
2022/03/29 09:03:15;;;;;;;12.82;7.60;;;;;;;;;;5051243;28;20037;-43
2022/03/29 09:05:41;;;;;;;19.42;8.77;;;;;;;;;;5051190;28;20017;-44
2022/03/29 09:08:12;;;;;;;20.42;9.30;;;;;;;;;;5050333;28;20091;-47
2022/03/29 09:10:38;;;;;;;19.10;7.80;;;;;;;;;;5050352;28;20114;-48
2022/03/29 09:13:14;;;;;;;18.48;8.57;;;;;;;;;;5049353;28;20028;-45
2022/03/29 09:15:40;;;;;;;25.95;8.65;;;;;;;;;;5050935;28;20037;-44
2022/03/29 09:18:10;;;;;;;20.80;8.38;;;;;;;;;;5050155;28;20194;-45
2022/03/29 09:20:36;;;;;;;18.92;7.68;;;;;;;;;;5048776;28;20071;-46
2022/03/29 09:23:03;;;;;;;15.02;8.55;;;;;;;;;;5050388;28;20048;-43
2022/03/29 09:25:36;;;;;;;16.90;8.05;;;;;;;;;;5051571;28;20029;-44
2022/03/29 09:28:05;;;;;;;35.75;10.48;;;;;;;;;;5049761;28;20035;-44
2022/03/29 09:30:41;;;;;;;24.65;8.88;;;;;;;;;;5050750;28;20021;-45
2022/03/29 09:33:12;;;;;;;26.38;9.18;;;;;;;;;;5048685;28;20115;-43
2022/03/29 09:35:53;;;;;;;22.47;9.33;;;;;;;;;;5051149;28;20032;-42
2022/03/29 09:38:23;;;;;;;20.38;8.68;;;;;;;;;;5049939;28;20398;-43
2022/03/29 09:40:49;;;;;;;24.45;8.13;;;;;;;;;;5051352;28;20533;-48
2022/03/29 09:43:15;;;;;;;20.63;8.68;;;;;;;;;;5054266;28;20041;-45
2022/03/29 09:45:49;;;;;;;23.67;8.00;;;;;;;;;;5053936;28;20021;-42
2022/03/29 09:48:35;;;;;;;20.92;8.60;;;;;;;;;;5053565;28;20035;-47
2022/03/29 09:51:10;;;;;;;19.33;8.20;;;;;;;;;;5053535;28;20025;-44
2022/03/29 09:53:43;;;;;;;18.48;8.43;;;;;;;;;;5053886;28;20029;-46
2022/03/29 09:56:11;;;;;;;14.05;7.82;;;;;;;;;;5053406;28;20595;-43
2022/03/29 09:58:38;;;;;;;20.90;8.20;;;;;;;;;;5054152;28;20060;-48
2022/03/29 10:01:04;;;;;;;18.77;8.13;;;;;;;;;;5053107;28;20044;-44
2022/03/29 10:03:33;;;;;;;16.40;8.10;;;;;;;;;;5053250;28;20390;-46
2022/03/29 10:06:03;;;;;;;18.98;8.75;;;;;;;;;;5053365;28;20017;-43
2022/03/29 10:11:16;;;;;;;17.30;8.02;;;;;;;;;;5053524;28;20080;-45
2022/03/29 10:13:43;;;;;;;18.80;8.88;;;;;;;;;;5053590;28;20033;-44
2022/03/29 10:16:14;;;;;;;19.45;8.32;;;;;;;;;;5052856;28;20477;-43
2022/03/29 10:18:44;;;;;;;18.13;7.72;;;;;;;;;;5054042;28;20032;-44
2022/03/29 10:21:11;;;;;;;21.63;8.18;;;;;;;;;;5052892;28;20029;-43
2022/03/29 10:23:37;;;;;;;18.52;8.35;;;;;;;;;;5053513;28;20059;-44
2022/03/29 10:26:04;;;;;;;14.50;7.88;;;;;;;;;;5051533;28;20386;-47
2022/03/29 10:28:30;;;;;;;18.00;7.75;;;;;;;;;;5053052;28;20025;-45
2022/03/29 10:30:57;;;;;;;13.70;7.85;;;;;;;;;;5051935;28;20485;-47
2022/03/29 10:33:24;;;;;;;13.38;6.68;;;;;;;;;;5053863;28;20029;-47
2022/03/29 10:35:59;;;;;;;13.68;7.78;;;;;;;;;;5053010;28;20100;-46
2022/03/29 10:38:58;;;;;;;11.90;7.63;;;;;;;;;;5053065;28;20045;-42
2022/03/29 10:41:30;;;;;;;15.02;7.55;;;;;;;;;;5022765;28;20048;-43
2022/03/29 10:44:01;;;;;;;13.05;6.22;;;;;;;;;;5052191;28;20033;-45
2022/03/29 10:46:38;;;;;;;12.38;7.70;;;;;;;;;;5033219;28;20498;-44
2022/03/29 10:49:13;;;;;;;12.55;6.50;;;;;;;;;;5032742;28;20029;-43
2022/03/29 10:51:39;;;;;;;11.73;7.38;;;;;;;;;;5048288;28;20036;-44
2022/03/29 10:54:24;;;;;;;9.15;5.45;;;;;;;;;;5051228;28;20025;-43
2022/03/29 10:57:03;;;;;;;9.85;7.38;;;;;;;;;;5052042;28;20033;-49
2022/03/29 10:59:30;;;;;;;11.27;5.80;;;;;;;;;;5053056;28;20029;-42
2022/03/29 11:02:18;;;;;;;10.32;6.70;;;;;;;;;;5051440;28;20544;-42
2022/03/29 11:05:04;;;;;;;12.45;6.07;;;;;;;;;;5051506;28;20025;-44
2022/03/29 11:07:32;;;;;;;10.05;5.65;;;;;;;;;;5051541;28;20025;-43
2022/03/29 11:10:09;;;;;;;11.88;7.10;;;;;;;;;;5050537;28;20037;-42
2022/03/29 11:12:36;;;;;;;13.10;7.70;;;;;;;;;;5044983;28;20505;-45
2022/03/29 11:15:22;;;;;;;10.30;6.55;;;;;;;;;;5051725;28;20044;-47
2022/03/29 11:17:48;;;;;;;12.55;6.80;;;;;;;;;;5049800;28;20545;-45
2022/03/29 11:20:35;;;;;;;10.30;6.03;;;;;;;;;;5051267;28;20107;-45
2022/03/29 11:23:08;;;;;;;9.13;6.28;;;;;;;;;;5050258;28;20120;-43
2022/03/29 11:25:50;;;;;;;12.38;6.45;;;;;;;;;;5052626;28;20035;-46
2022/03/29 11:28:18;;;;;;;14.47;7.20;;;;;;;;;;5050858;28;20023;-45
2022/03/29 11:30:44;;;;;;;12.90;6.75;;;;;;;;;;5052320;28;20025;-44
2022/03/29 11:33:12;;;;;;;12.40;6.85;;;;;;;;;;5051684;28;20033;-44
2022/03/29 11:35:39;;;;;;;19.35;7.70;;;;;;;;;;5051721;28;20495;-43
2022/03/29 11:38:12;;;;;;;15.02;7.90;;;;;;;;;;5050941;28;20116;-45
2022/03/29 11:40:39;;;;;;;12.70;7.93;;;;;;;;;;5033068;28;20433;-44
2022/03/29 11:43:06;;;;;;;13.88;7.68;;;;;;;;;;5051319;28;20036;-44
2022/03/29 11:45:39;;;;;;;10.52;6.45;;;;;;;;;;5052261;28;20096;-45
2022/03/29 11:48:07;;;;;;;9.40;6.45;;;;;;;;;;5050385;28;20074;-44
2022/03/29 11:50:39;;;;;;;10.05;6.65;;;;;;;;;;5050964;28;20545;-43
2022/03/29 11:53:20;;;;;;;11.48;6.32;;;;;;;;;;5050695;28;20025;-46
2022/03/29 11:56:03;;;;;;;11.07;6.20;;;;;;;;;;5049583;28;20028;-45
2022/03/29 11:58:29;;;;;;;11.20;6.28;;;;;;;;;;5051859;28;20029;-46
2022/03/29 12:01:03;;;;;;;7.40;5.47;;;;;;;;;;5050270;28;20025;-48
2022/03/29 12:03:31;;;;;;;9.02;5.45;;;;;;;;;;5051356;28;20037;-44
2022/03/29 12:06:07;;;;;;;12.95;6.45;;;;;;;;;;5050413;28;20484;-47
2022/03/29 12:08:49;;;;;;;11.00;5.28;;;;;;;;;;5046695;28;20444;-44
2022/03/29 12:11:16;;;;;;;10.93;5.35;;;;;;;;;;5049469;28;20451;-44
2022/03/29 12:13:44;;;;;;;9.40;5.10;;;;;;;;;;5050865;28;20435;-43
2022/03/29 12:16:16;;;;;;;8.85;5.45;;;;;;;;;;5049812;28;20024;-44
2022/03/29 12:18:44;;;;;;;9.32;4.43;;;;;;;;;;5051013;28;20029;-47
2022/03/29 12:21:11;;;;;;;7.65;4.93;;;;;;;;;;5049516;28;20021;-43
2022/03/29 12:23:37;;;;;;;10.07;5.78;;;;;;;;;;5032293;28;20029;-45
2022/03/29 12:26:03;;;;;;;8.75;4.80;;;;;;;;;;5051054;28;20020;-45
2022/03/29 12:28:30;;;;;;;5.97;4.38;;;;;;;;;;5044568;28;20029;-44
2022/03/29 12:30:56;;;;;;;8.75;5.15;;;;;;;;;;5046462;28;20036;-47
2022/03/29 12:33:25;;;;;;;7.72;4.93;;;;;;;;;;5050963;28;20079;-44
2022/03/29 12:36:10;;;;;;;6.32;4.47;;;;;;;;;;5045353;28;20029;-44
2022/03/29 12:39:06;;;;;;;8.90;4.57;;;;;;;;;;5035613;28;20041;-43
2022/03/29 12:41:34;;;;;;;8.63;5.57;;;;;;;;;;5041293;28;20037;-44
2022/03/29 12:44:00;;;;;;;8.73;5.10;;;;;;;;;;5048413;28;20033;-44
2022/03/29 12:46:27;;;;;;;11.10;5.32;;;;;;;;;;5051274;28;20382;-44
2022/03/29 12:48:54;;;;;;;6.40;4.68;;;;;;;;;;5051442;28;20017;-44
2022/03/29 12:51:31;;;;;;;6.68;4.22;;;;;;;;;;5034423;28;20030;-45
2022/03/29 12:53:58;;;;;;;7.35;5.05;;;;;;;;;;5031240;28;20025;-49
2022/03/29 12:56:28;;;;;;;8.43;4.20;;;;;;;;;;5047612;28;20060;-44
2022/03/29 12:58:55;;;;;;;9.20;5.28;;;;;;;;;;5040217;28;20021;-45
2022/03/29 13:01:25;;;;;;;9.30;4.40;;;;;;;;;;5037735;28;20025;-44
2022/03/29 13:03:51;;;;;;;7.43;3.95;;;;;;;;;;5050442;28;20029;-44
2022/03/29 13:06:17;;;;;;;7.78;4.40;;;;;;;;;;5049454;28;20021;-44
2022/03/29 13:08:43;;;;;;;6.80;4.53;;;;;;;;;;5051033;28;20048;-47
2022/03/29 13:11:17;;;;;;;7.05;4.13;;;;;;;;;;5050053;28;20025;-44
2022/03/29 13:13:43;;;;;;;10.02;5.22;;;;;;;;;;5051122;28;20060;-45
2022/03/29 13:16:19;;;;;;;6.57;4.25;;;;;;;;;;5051514;28;20054;-43
2022/03/29 13:18:49;;;;;;;7.97;4.43;;;;;;;;;;5055315;28;20024;-43
2022/03/29 13:21:15;;;;;;;7.63;4.65;;;;;;;;;;5054255;28;20083;-44
2022/03/29 13:23:42;;;;;;;4.95;3.60;;;;;;;;;;5054638;28;20029;-44
2022/03/29 13:26:09;;;;;;;5.82;4.15;;;;;;;;;;5054028;28;20031;-45
2022/03/29 13:28:36;;;;;;;6.68;4.40;;;;;;;;;;5054788;28;20029;-46
2022/03/29 13:31:03;;;;;;;9.43;4.00;;;;;;;;;;5053406;28;20032;-44
2022/03/29 13:33:29;;;;;;;6.13;4.35;;;;;;;;;;5051802;28;20037;-43
2022/03/29 13:35:55;;;;;;;9.00;4.80;;;;;;;;;;5052285;28;20150;-44
2022/03/29 13:38:22;;;;;;;6.80;4.13;;;;;;;;;;5052555;28;20080;-44
2022/03/29 13:40:49;;;;;;;7.47;4.57;;;;;;;;;;5054367;28;20124;-47
2022/03/29 13:43:15;;;;;;;5.93;4.03;;;;;;;;;;5053760;28;20024;-48
2022/03/29 13:45:41;;;;;;;7.03;4.25;;;;;;;;;;5054266;28;20462;-44
2022/03/29 13:48:08;;;;;;;7.05;4.18;;;;;;;;;;5033581;28;20032;-48
2022/03/29 13:50:34;;;;;;;5.43;3.92;;;;;;;;;;5050441;28;20033;-45
2022/03/29 13:53:04;;;;;;;5.45;4.13;;;;;;;;;;5053050;28;20051;-49
2022/03/29 13:55:34;;;;;;;5.97;3.60;;;;;;;;;;5054448;28;20025;-47
2022/03/29 13:58:04;;;;;;;7.78;4.05;;;;;;;;;;5053455;28;20036;-48
2022/03/29 14:00:34;;;;;;;7.53;4.63;;;;;;;;;;5054707;28;20024;-45
2022/03/29 14:03:01;;;;;;;6.28;3.95;;;;;;;;;;5053584;28;20036;-48
2022/03/29 14:05:28;;;;;;;7.30;4.60;;;;;;;;;;5053211;28;20094;-44
2022/03/29 14:07:55;;;;;;;6.97;3.50;;;;;;;;;;5053453;28;20060;-47
2022/03/29 14:10:21;;;;;;;6.43;4.30;;;;;;;;;;5052998;28;20044;-41
2022/03/29 14:12:47;;;;;;;7.85;3.90;;;;;;;;;;5053005;28;20075;-44
2022/03/29 14:15:14;;;;;;;6.90;3.90;;;;;;;;;;5052472;28;20120;-45
2022/03/29 14:17:40;;;;;;;6.80;3.90;;;;;;;;;;5052352;28;20056;-43
2022/03/29 14:20:06;;;;;;;8.02;4.47;;;;;;;;;;5053125;28;20029;-43
2022/03/29 14:22:34;;;;;;;6.63;4.28;;;;;;;;;;5052470;28;20028;-44
2022/03/29 14:25:01;;;;;;;8.82;3.58;;;;;;;;;;5051479;28;20470;-47
2022/03/29 14:27:27;;;;;;;6.43;4.05;;;;;;;;;;5052733;28;20078;-46
2022/03/29 14:29:53;;;;;;;6.20;3.85;;;;;;;;;;5053006;28;20051;-43
2022/03/29 14:32:20;;;;;;;8.35;3.72;;;;;;;;;;5052836;28;20044;-47
2022/03/29 14:34:47;;;;;;;6.45;3.88;;;;;;;;;;5053649;28;20099;-43
2022/03/29 14:37:14;;;;;;;8.40;4.72;;;;;;;;;;5051926;28;20025;-42
2022/03/29 14:39:41;;;;;;;10.77;4.43;;;;;;;;;;5052856;28;20501;-43
2022/03/29 14:42:07;;;;;;;7.18;4.05;;;;;;;;;;5052534;28;20017;-44
2022/03/29 14:44:33;;;;;;;13.75;4.70;;;;;;;;;;5052421;28;20158;-45
2022/03/29 14:46:59;;;;;;;11.98;4.78;;;;;;;;;;5051636;28;20455;-49
2022/03/29 14:49:28;;;;;;;7.22;4.20;;;;;;;;;;5052546;28;20017;-43
2022/03/29 14:51:56;;;;;;;6.88;4.10;;;;;;;;;;5052961;28;20025;-43
2022/03/29 14:54:22;;;;;;;8.57;4.00;;;;;;;;;;5052015;28;20036;-47